createdAt,value
2023-04-10T00:04:22.269Z,101226.91
2023-04-10T00:09:24.061Z,101233.97
2023-04-10T00:14:25.884Z,101219.25
2023-04-10T00:19:27.546Z,101218.88
2023-04-10T00:24:29.150Z,101216.59
2023-04-10T00:29:30.851Z,101218.31
2023-04-10T00:34:32.553Z,101212.09
2023-04-10T00:39:34.650Z,101215.06
2023-04-10T00:44:37.740Z,101207.63
2023-04-10T00:49:39.467Z,101207.72
2023-04-10T00:54:41.421Z,101208.19
2023-04-10T00:59:43.478Z,101204.31
2023-04-10T01:04:45.140Z,101198.31
2023-04-10T01:09:59.923Z,101206.78
2023-04-10T01:15:04.116Z,101209.94
2023-04-10T01:20:16.509Z,101209.63
2023-04-10T01:25:34.947Z,101220.31
2023-04-10T01:30:37.364Z,101220.13
2023-04-10T01:35:40.967Z,101224.31
2023-04-10T01:40:48.993Z,101221.03
2023-04-10T01:45:54.161Z,101217.66
2023-04-10T01:50:56.295Z,101214.69
2023-04-10T01:55:58.445Z,101209.88
2023-04-10T02:01:01.596Z,101202.66
2023-04-10T02:06:17.798Z,101196.56
2023-04-10T02:11:25.434Z,101199.81
2023-04-10T02:16:27.893Z,101204.91
2023-04-10T02:21:29.744Z,101204.41
2023-04-10T02:26:31.387Z,101196.72
2023-04-10T02:31:33.102Z,101189.66
2023-04-10T02:36:38.686Z,101194.16
2023-04-10T02:41:42.182Z,101189.94
2023-04-10T02:46:47.197Z,101194.41
2023-04-10T02:51:49.768Z,101186.25
2023-04-10T02:56:51.419Z,101187.44
2023-04-10T03:01:53.151Z,101190.44
2023-04-10T03:06:55.893Z,101187.69
2023-04-10T03:11:58.796Z,101194.50
2023-04-10T03:17:00.641Z,101200.53
2023-04-10T03:22:03.649Z,101202.94
2023-04-10T03:27:05.492Z,101197.34
2023-04-10T03:32:08.735Z,101190.78
2023-04-10T03:37:12.089Z,101196.91
2023-04-10T03:42:13.831Z,101201.91
2023-04-10T03:47:16.289Z,101197.41
2023-04-10T03:52:23.521Z,101208.59
2023-04-10T03:57:25.688Z,101204.97
2023-04-10T04:02:31.838Z,101203.06
2023-04-10T04:07:33.764Z,101219.19
2023-04-10T04:12:45.532Z,101218.09
2023-04-10T04:18:13.395Z,101224.91
2023-04-10T04:23:18.828Z,101225.94
2023-04-10T04:28:43.501Z,101224.56
2023-04-10T04:34:23.620Z,101229.47
2023-04-10T04:39:45.832Z,101234.81
2023-04-10T04:45:10.822Z,101226.63
2023-04-10T04:50:12.503Z,101233.50
2023-04-10T04:55:29.090Z,101224.19
2023-04-10T05:00:38.564Z,101223.81
2023-04-10T05:05:56.846Z,101230.03
2023-04-10T05:11:16.921Z,101225.53
2023-04-10T05:16:27.545Z,101232.69
2023-04-10T05:21:36.463Z,101233.59
2023-04-10T05:26:57.798Z,101241.44
2023-04-10T05:32:18.303Z,101237.47
2023-04-10T05:37:46.013Z,101241.53
2023-04-10T05:43:16.721Z,101245.34
2023-04-10T05:48:34.913Z,101236.06
2023-04-10T05:53:52.996Z,101231.50
2023-04-10T05:59:14.223Z,101232.69
2023-04-10T06:04:36.289Z,101232.06
2023-04-10T06:09:38.294Z,101234.09
2023-04-10T06:14:44.532Z,101227.59
2023-04-10T06:19:47.680Z,101232.44
2023-04-10T06:24:49.383Z,101229.66
2023-04-10T06:29:51.149Z,101226.09
2023-04-10T06:34:56.510Z,101219.06
2023-04-10T06:40:09.392Z,101208.84
2023-04-10T06:45:11.597Z,101216.47
2023-04-10T06:50:13.199Z,101219.69
2023-04-10T06:55:14.810Z,101225.53
2023-04-10T07:00:16.843Z,101218.94
2023-04-10T07:05:18.649Z,101211.53
2023-04-10T07:10:20.306Z,101213.16
2023-04-10T07:15:21.920Z,101202.91
2023-04-10T07:20:23.615Z,101211.38
2023-04-10T07:25:25.386Z,101202.72
2023-04-10T07:30:27.026Z,101197.59
2023-04-10T07:35:28.684Z,101188.75
2023-04-10T07:40:30.398Z,101182.44
2023-04-10T07:45:32.739Z,101181.50
2023-04-10T07:50:34.365Z,101185.50
2023-04-10T07:55:43.187Z,101175.69
2023-04-10T08:00:45.016Z,101180.88
2023-04-10T08:05:46.704Z,101169.25
2023-04-10T08:10:48.788Z,101171.56
2023-04-10T08:15:50.646Z,101173.44
2023-04-10T08:20:52.270Z,101168.22
2023-04-10T08:25:53.896Z,101157.84
2023-04-10T08:30:55.708Z,101154.84
2023-04-10T08:35:57.633Z,101145.88
2023-04-10T08:40:59.300Z,101147.81
2023-04-10T08:46:02.245Z,101145.41
2023-04-10T08:51:06.093Z,101127.88
2023-04-10T08:56:08.289Z,101129.38
2023-04-10T09:01:13.594Z,101124.56
2023-04-10T09:06:15.269Z,101123.25
2023-04-10T09:11:16.967Z,101115.41
2023-04-10T09:16:28.789Z,101113.75
2023-04-10T09:21:31.370Z,101110.56
2023-04-10T09:26:33.662Z,101102.19
2023-04-10T09:31:37.480Z,101103.25
2023-04-10T09:36:41.711Z,101099.09
2023-04-10T09:41:55.381Z,101083.13
2023-04-10T09:47:15.428Z,101078.25
2023-04-10T09:52:44.287Z,101062.00
2023-04-10T09:57:46.488Z,101056.41
2023-04-10T10:02:48.932Z,101054.47
2023-04-10T10:07:50.794Z,101053.28
2023-04-10T10:12:55.918Z,101042.38
2023-04-10T10:18:04.452Z,101031.81
2023-04-10T10:23:07.708Z,101016.88
2023-04-10T10:28:13.172Z,101018.19
2023-04-10T10:33:15.082Z,101010.50
2023-04-10T10:38:16.840Z,100999.81
2023-04-10T10:43:26.079Z,100992.75
2023-04-10T10:48:28.184Z,100984.94
2023-04-10T10:53:43.376Z,100969.72
2023-04-10T10:58:52.266Z,100969.97
2023-04-10T11:03:54.299Z,100966.50
2023-04-10T11:08:57.086Z,100951.00
2023-04-10T11:14:01.397Z,100934.38
2023-04-10T11:19:13.363Z,100927.25
2023-04-10T11:24:34.087Z,100919.41
2023-04-10T11:29:39.290Z,100899.69
2023-04-10T11:34:45.102Z,100901.56
2023-04-10T11:40:03.717Z,100893.94
2023-04-10T11:45:26.152Z,100877.59
2023-04-10T11:50:29.680Z,100872.16
2023-04-10T11:55:39.073Z,100868.41
2023-04-10T12:00:40.850Z,100863.50
2023-04-10T12:05:47.176Z,100850.22
2023-04-10T12:10:49.051Z,100857.53
2023-04-10T12:15:51.068Z,100841.69
2023-04-10T12:20:56.289Z,100847.31
2023-04-10T12:26:17.420Z,100840.66
2023-04-10T12:31:19.533Z,100833.31
2023-04-10T12:36:22.765Z,100824.47
2023-04-10T12:41:30.513Z,100819.84
2023-04-10T12:46:32.390Z,100820.78
2023-04-10T12:51:49.117Z,100819.56
2023-04-10T12:56:51.461Z,100807.16
2023-04-10T13:01:53.819Z,100803.59
2023-04-10T13:06:55.670Z,100789.09
2023-04-10T13:11:57.723Z,100794.19
2023-04-10T13:16:59.368Z,100780.44
2023-04-10T13:22:02.031Z,100775.66
2023-04-10T13:27:03.989Z,100774.19
2023-04-10T13:32:06.066Z,100761.22
2023-04-10T13:37:07.819Z,100749.16
2023-04-10T13:42:09.987Z,100737.16
2023-04-10T13:47:11.729Z,100739.84
2023-04-10T13:52:13.612Z,100733.53
2023-04-10T13:57:15.381Z,100714.44
2023-04-10T14:02:17.217Z,100702.84
2023-04-10T14:07:19.909Z,100704.03
2023-04-10T14:12:23.210Z,100698.47
2023-04-10T14:17:25.499Z,100693.03
2023-04-10T14:22:27.202Z,100697.13
2023-04-10T14:27:28.855Z,100682.56
2023-04-10T14:32:30.963Z,100667.47
2023-04-10T14:37:32.736Z,100656.91
2023-04-10T14:42:34.465Z,100659.22
2023-04-10T14:47:36.417Z,100650.75
2023-04-10T14:52:38.193Z,100647.28
2023-04-10T14:57:39.881Z,100644.69
2023-04-10T15:02:42.183Z,100646.63
2023-04-10T15:07:44.394Z,100632.53
2023-04-10T15:12:46.193Z,100639.53
2023-04-10T15:17:48.281Z,100610.94
2023-04-10T15:22:49.965Z,100596.31
2023-04-10T15:27:51.684Z,100598.19
2023-04-10T15:32:53.446Z,100591.25
2023-04-10T15:37:55.441Z,100573.97
2023-04-10T15:42:57.144Z,100570.94
2023-04-10T15:48:01.177Z,100562.28
2023-04-10T15:53:03.060Z,100558.19
2023-04-10T15:58:04.720Z,100568.25
2023-04-10T16:03:06.642Z,100556.53
2023-04-10T16:08:08.454Z,100548.53
2023-04-10T16:13:10.107Z,100537.84
2023-04-10T16:18:11.854Z,100523.75
2023-04-10T16:23:13.447Z,100527.31
2023-04-10T16:28:15.229Z,100516.81
2023-04-10T16:33:16.858Z,100517.84
2023-04-10T16:38:18.535Z,100511.59
2023-04-10T16:43:20.242Z,100508.06
2023-04-10T16:48:21.989Z,100502.28
2023-04-10T16:53:23.616Z,100490.75
2023-04-10T16:58:25.907Z,100489.41
2023-04-10T17:03:27.642Z,100480.91
2023-04-10T17:08:29.529Z,100480.63
2023-04-10T17:13:31.274Z,100479.59
2023-04-10T17:18:32.902Z,100470.63
2023-04-10T17:23:34.535Z,100467.44
2023-04-10T17:28:36.766Z,100470.00
2023-04-10T17:33:39.171Z,100457.94
2023-04-10T17:38:42.013Z,100464.59
2023-04-10T17:43:43.746Z,100463.91
2023-04-10T17:48:45.715Z,100458.44
2023-04-10T17:53:47.456Z,100445.75
2023-04-10T17:58:49.259Z,100454.22
2023-04-10T18:03:51.133Z,100437.56
2023-04-10T18:08:53.224Z,100427.00
2023-04-10T18:13:55.262Z,100430.84
2023-04-10T18:18:57.014Z,100431.16
2023-04-10T18:23:58.862Z,100426.44
2023-04-10T18:29:00.783Z,100417.78
2023-04-10T18:34:07.574Z,100413.03
2023-04-10T18:39:10.811Z,100407.75
2023-04-10T18:44:12.634Z,100412.91
2023-04-10T18:49:14.351Z,100415.56
2023-04-10T18:54:15.961Z,100401.13
2023-04-10T18:59:17.605Z,100396.44
2023-04-10T19:04:19.388Z,100391.16
2023-04-10T19:09:21.578Z,100394.75
2023-04-10T19:14:23.282Z,100384.13
2023-04-10T19:19:24.892Z,100381.75
2023-04-10T19:24:27.135Z,100362.81
2023-04-10T19:29:31.540Z,100367.31
2023-04-10T19:34:33.206Z,100357.16
2023-04-10T19:39:34.961Z,100347.50
2023-04-10T19:44:37.140Z,100333.94
2023-04-10T19:49:38.895Z,100329.97
2023-04-10T19:54:40.648Z,100339.19
2023-04-10T19:59:42.278Z,100333.00
2023-04-10T20:04:45.708Z,100329.00
2023-04-10T20:09:49.807Z,100329.38
2023-04-10T20:14:51.444Z,100324.19
2023-04-10T20:19:53.055Z,100320.34
2023-04-10T20:24:56.217Z,100302.91
2023-04-10T20:29:57.948Z,100293.34
2023-04-10T20:35:02.117Z,100275.69
2023-04-10T20:40:05.917Z,100257.97
2023-04-10T20:45:08.110Z,100267.38
2023-04-10T20:50:13.039Z,100257.63
2023-04-10T20:55:17.492Z,100252.84
2023-04-10T21:00:22.217Z,100242.09
2023-04-10T21:05:23.844Z,100245.00
2023-04-10T21:10:27.069Z,100248.06
2023-04-10T21:15:34.795Z,100243.91
2023-04-10T21:20:37.705Z,100244.09
2023-04-10T21:25:39.353Z,100236.75
2023-04-10T21:30:41.033Z,100233.41
2023-04-10T21:35:46.487Z,100230.31
2023-04-10T21:41:03.874Z,100210.06
2023-04-10T21:46:06.406Z,100204.81
2023-04-10T21:51:08.154Z,100188.66
2023-04-10T21:56:09.836Z,100183.91
2023-04-10T22:01:12.535Z,100194.94
2023-04-10T22:06:14.427Z,100189.59
2023-04-10T22:11:16.162Z,100193.28
2023-04-10T22:16:17.816Z,100171.63
2023-04-10T22:21:19.472Z,100168.84
2023-04-10T22:26:21.281Z,100166.41
2023-04-10T22:31:23.152Z,100163.13
2023-04-10T22:36:29.165Z,100145.97
2023-04-10T22:41:31.806Z,100137.19
2023-04-10T22:46:34.116Z,100129.56
2023-04-10T22:51:35.887Z,100131.00
2023-04-10T22:56:37.535Z,100119.75
2023-04-10T23:01:39.221Z,100095.81
2023-04-10T23:06:40.952Z,100090.09
2023-04-10T23:11:43.095Z,100084.94
2023-04-10T23:16:47.816Z,100082.94
2023-04-10T23:21:50.035Z,100075.69
2023-04-10T23:26:51.664Z,100059.97
2023-04-10T23:31:53.298Z,100062.84
2023-04-10T23:36:55.801Z,100050.06
2023-04-10T23:41:57.563Z,100029.03
2023-04-10T23:46:59.436Z,100017.38
2023-04-10T23:52:01.090Z,100021.47
2023-04-10T23:57:02.728Z,99995.66
